createdAt,value
2022-09-07T00:01:10.641Z,1.00
2022-09-07T00:03:37.276Z,1.10
2022-09-07T00:06:12.317Z,1.00
2022-09-07T00:08:40.416Z,0.98
2022-09-07T00:11:11.419Z,1.20
2022-09-07T00:13:39.886Z,0.95
2022-09-07T00:16:18.685Z,1.02
2022-09-07T00:18:46.427Z,1.17
2022-09-07T00:21:15.528Z,1.10
2022-09-07T00:23:42.478Z,0.95
2022-09-07T00:26:11.847Z,0.88
2022-09-07T00:28:39.480Z,1.00
2022-09-07T00:31:11.341Z,0.70
2022-09-07T00:33:38.206Z,0.85
2022-09-07T00:36:05.029Z,1.50
2022-09-07T00:38:31.825Z,0.73
2022-09-07T00:40:58.715Z,1.35
2022-09-07T00:43:46.976Z,1.00
2022-09-07T00:46:17.700Z,0.90
2022-09-07T00:49:02.267Z,1.38
2022-09-07T00:51:44.777Z,0.82
2022-09-07T00:54:19.162Z,1.10
2022-09-07T00:56:47.372Z,0.98
2022-09-07T00:59:17.596Z,1.17
2022-09-07T01:01:45.321Z,0.90
2022-09-07T01:04:12.702Z,0.93
2022-09-07T01:06:39.964Z,0.90
2022-09-07T01:09:12.658Z,1.15
2022-09-07T01:11:40.012Z,0.93
2022-09-07T01:14:09.843Z,0.85
2022-09-07T01:16:51.846Z,1.00
2022-09-07T01:19:21.548Z,0.70
2022-09-07T01:22:06.149Z,0.80
2022-09-07T01:25:12.097Z,1.02
2022-09-07T01:27:56.685Z,0.65
2022-09-07T01:30:24.796Z,0.60
2022-09-07T01:33:16.887Z,0.90
2022-09-07T01:36:08.702Z,0.80
2022-09-07T01:38:41.473Z,1.20
2022-09-07T01:41:22.895Z,1.13
2022-09-07T01:44:04.235Z,1.20
2022-09-07T01:46:42.931Z,0.80
2022-09-07T01:49:35.995Z,0.90
2022-09-07T01:52:10.213Z,0.95
2022-09-07T01:54:46.412Z,1.05
2022-09-07T01:57:26.520Z,0.80
2022-09-07T01:59:57.320Z,0.65
2022-09-07T02:02:30.737Z,1.45
2022-09-07T02:05:18.641Z,1.10
2022-09-07T02:08:06.927Z,1.38
2022-09-07T02:10:54.752Z,0.90
2022-09-07T02:13:29.458Z,0.93
2022-09-07T02:16:06.869Z,0.90
2022-09-07T02:18:38.820Z,0.95
2022-09-07T02:21:08.720Z,0.82
2022-09-07T02:23:40.794Z,0.80
2022-09-07T02:26:15.170Z,1.17
2022-09-07T02:28:42.154Z,1.13
2022-09-07T02:31:08.932Z,2.15
2022-09-07T02:33:35.857Z,1.08
2022-09-07T02:36:04.464Z,1.30
2022-09-07T02:38:32.752Z,1.33
2022-09-07T02:41:01.029Z,1.17
2022-09-07T02:43:28.702Z,1.67
2022-09-07T02:46:28.195Z,1.02
2022-09-07T02:49:09.016Z,1.15
2022-09-07T02:52:10.189Z,1.08
2022-09-07T02:54:45.796Z,1.10
2022-09-07T02:57:43.135Z,1.08
2022-09-07T03:00:12.988Z,1.40
2022-09-07T03:03:20.940Z,1.10
2022-09-07T03:05:50.111Z,1.38
2022-09-07T03:08:31.425Z,1.30
2022-09-07T03:10:59.189Z,0.90
2022-09-07T03:13:28.126Z,1.20
2022-09-07T03:15:56.501Z,1.20
2022-09-07T03:18:24.494Z,1.08
2022-09-07T03:20:51.524Z,1.40
2022-09-07T03:23:18.387Z,1.55
2022-09-07T03:25:45.332Z,1.13
2022-09-07T03:28:12.027Z,1.60
2022-09-07T03:30:43.936Z,1.35
2022-09-07T03:33:11.260Z,1.67
2022-09-07T03:35:37.866Z,1.73
2022-09-07T03:38:04.478Z,1.40
2022-09-07T03:40:32.192Z,1.58
2022-09-07T03:42:58.849Z,1.70
2022-09-07T03:45:29.748Z,1.83
2022-09-07T03:47:56.645Z,2.10
2022-09-07T03:50:23.235Z,1.55
2022-09-07T03:52:49.831Z,1.75
2022-09-07T03:55:16.496Z,1.58
2022-09-07T03:57:43.499Z,1.60
2022-09-07T04:00:10.860Z,2.13
2022-09-07T04:02:37.550Z,1.77
2022-09-07T04:05:04.459Z,1.55
2022-09-07T04:07:31.070Z,1.50
2022-09-07T04:09:57.659Z,2.03
2022-09-07T04:12:25.973Z,2.10
2022-09-07T04:14:52.590Z,2.22
2022-09-07T04:17:19.199Z,1.48
2022-09-07T04:19:45.831Z,1.80
2022-09-07T04:22:12.431Z,2.55
2022-09-07T04:24:39.050Z,1.95
2022-09-07T04:27:05.691Z,2.13
2022-09-07T04:29:32.294Z,2.15
2022-09-07T04:31:58.924Z,2.55
2022-09-07T04:34:25.587Z,2.17
2022-09-07T04:36:52.276Z,2.88
2022-09-07T04:39:18.891Z,2.58
2022-09-07T04:41:45.550Z,2.20
2022-09-07T04:44:16.625Z,2.60
2022-09-07T04:46:43.503Z,2.33
2022-09-07T04:49:11.891Z,2.30
2022-09-07T04:51:39.996Z,2.50
2022-09-07T04:54:07.249Z,2.58
2022-09-07T04:56:34.215Z,2.35
2022-09-07T04:59:01.939Z,2.53
2022-09-07T05:01:28.999Z,2.70
2022-09-07T05:03:55.932Z,2.47
2022-09-07T05:06:23.415Z,2.40
2022-09-07T05:08:52.382Z,3.08
2022-09-07T05:11:21.201Z,2.08
2022-09-07T05:13:49.741Z,2.75
2022-09-07T05:16:18.765Z,2.05
2022-09-07T05:18:49.510Z,2.58
2022-09-07T05:21:18.823Z,2.25
2022-09-07T05:23:49.175Z,2.20
2022-09-07T05:26:15.878Z,2.85
2022-09-07T05:28:43.210Z,2.28
2022-09-07T05:31:19.071Z,2.97
2022-09-07T05:36:35.472Z,2.25
2022-09-07T05:39:02.116Z,2.15
2022-09-07T05:41:28.921Z,2.22
2022-09-07T05:46:42.646Z,2.33
2022-09-07T05:49:09.894Z,2.40
2022-09-07T05:51:37.188Z,2.17
2022-09-07T05:54:04.128Z,2.58
2022-09-07T05:56:33.247Z,2.67
2022-09-07T05:58:59.840Z,2.38
2022-09-07T06:01:26.528Z,2.35
2022-09-07T06:03:53.143Z,2.50
2022-09-07T06:06:19.791Z,2.80
2022-09-07T06:08:51.496Z,2.22
2022-09-07T06:11:22.293Z,2.75
2022-09-07T06:13:49.235Z,2.33
2022-09-07T06:16:17.073Z,2.13
2022-09-07T06:18:45.883Z,2.78
2022-09-07T06:21:14.468Z,2.60
2022-09-07T06:23:42.687Z,2.70
2022-09-07T06:26:10.300Z,2.55
2022-09-07T06:28:39.303Z,2.20
2022-09-07T06:31:12.829Z,2.70
2022-09-07T06:33:40.451Z,2.80
2022-09-07T06:36:14.291Z,2.47
2022-09-07T06:38:41.229Z,2.70
2022-09-07T06:43:58.292Z,2.42
2022-09-07T06:49:12.636Z,1.92
2022-09-07T06:51:39.232Z,3.08
2022-09-07T06:56:52.715Z,2.40
2022-09-07T06:59:19.442Z,2.53
2022-09-07T07:01:46.083Z,2.88
2022-09-07T07:04:13.225Z,2.55
2022-09-07T07:06:39.961Z,2.80
2022-09-07T07:09:08.586Z,2.42
2022-09-07T07:11:37.112Z,2.03
2022-09-07T07:14:04.109Z,2.42
2022-09-07T07:16:31.034Z,2.67
2022-09-07T07:18:57.915Z,2.60
2022-09-07T07:21:24.633Z,2.67
2022-09-07T07:23:52.749Z,2.50
2022-09-07T07:26:21.631Z,2.50
2022-09-07T07:29:06.069Z,2.53
2022-09-07T07:31:33.612Z,2.72
2022-09-07T07:34:00.342Z,2.55
2022-09-07T07:36:28.056Z,2.60
2022-09-07T07:44:18.400Z,2.40
2022-09-07T07:46:51.284Z,2.92
2022-09-07T07:49:18.322Z,2.80
2022-09-07T07:54:36.000Z,2.65
2022-09-07T07:57:03.896Z,2.88
2022-09-07T07:59:30.771Z,2.90
2022-09-07T08:01:57.474Z,2.17
2022-09-07T08:04:24.134Z,3.10
2022-09-07T08:06:50.716Z,3.55
2022-09-07T08:09:17.427Z,2.50
2022-09-07T08:11:43.988Z,2.85
2022-09-07T08:14:10.556Z,3.15
2022-09-07T08:16:37.564Z,2.78
2022-09-07T08:19:05.548Z,3.00
2022-09-07T08:21:32.083Z,3.15
2022-09-07T08:23:59.811Z,2.97
2022-09-07T08:26:27.155Z,2.70
2022-09-07T08:28:53.837Z,3.05
2022-09-07T08:31:20.462Z,3.28
2022-09-07T08:33:47.113Z,2.83
2022-09-07T08:36:21.227Z,3.58
2022-09-07T08:38:48.125Z,2.67
2022-09-07T08:41:52.528Z,2.67
2022-09-07T08:44:24.641Z,2.60
2022-09-07T08:46:58.975Z,3.42
2022-09-07T08:49:31.387Z,3.13
2022-09-07T08:52:26.004Z,2.80
2022-09-07T08:55:09.452Z,2.63
2022-09-07T08:57:41.441Z,2.38
2022-09-07T09:00:14.049Z,2.70
2022-09-07T09:05:31.858Z,2.58
2022-09-07T09:06:11.612Z,2.25
2022-09-07T09:08:18.090Z,2.42
2022-09-07T09:10:53.372Z,2.28
2022-09-07T09:13:43.567Z,1.98
2022-09-07T09:16:29.364Z,3.25
2022-09-07T09:19:27.677Z,2.78
2022-09-07T09:22:09.520Z,2.88
2022-09-07T09:24:41.020Z,3.38
2022-09-07T09:27:09.696Z,2.47
2022-09-07T09:29:36.236Z,2.58
2022-09-07T09:32:33.288Z,2.65
2022-09-07T09:35:10.180Z,2.40
2022-09-07T09:37:38.244Z,2.42
2022-09-07T09:40:09.260Z,3.28
2022-09-07T09:42:38.701Z,2.53
2022-09-07T09:45:16.316Z,2.80
2022-09-07T09:47:50.157Z,2.22
2022-09-07T09:53:57.642Z,2.60
2022-09-07T09:56:40.111Z,2.95
2022-09-07T10:05:26.356Z,2.92
2022-09-07T10:07:53.744Z,2.72
2022-09-07T10:10:20.784Z,2.78
2022-09-07T10:12:47.423Z,3.08
2022-09-07T10:15:39.708Z,2.80
2022-09-07T10:18:16.163Z,2.85
2022-09-07T10:20:42.687Z,2.92
2022-09-07T10:23:23.133Z,3.72
2022-09-07T10:25:49.675Z,3.15
2022-09-07T10:28:21.794Z,3.00
2022-09-07T10:31:15.846Z,2.92
2022-09-07T10:36:59.204Z,3.05
2022-09-07T10:39:31.039Z,3.45
2022-09-07T10:42:09.530Z,3.05
2022-09-07T10:44:57.947Z,3.10
2022-09-07T10:47:34.627Z,3.40
2022-09-07T10:53:43.415Z,3.20
2022-09-07T10:56:30.107Z,3.30
2022-09-07T10:59:20.184Z,3.65
2022-09-07T11:02:16.328Z,3.03
2022-09-07T11:04:58.972Z,3.08
2022-09-07T11:07:43.952Z,3.20
2022-09-07T11:10:16.442Z,3.28
2022-09-07T11:12:45.116Z,3.33
2022-09-07T11:15:17.933Z,3.10
2022-09-07T11:17:52.776Z,3.40
2022-09-07T11:20:33.299Z,3.58
2022-09-07T11:23:25.976Z,3.58
2022-09-07T11:25:52.448Z,3.47
2022-09-07T11:28:27.088Z,3.70
2022-09-07T11:31:00.594Z,3.88
2022-09-07T11:33:27.225Z,3.70
2022-09-07T11:36:02.175Z,3.60
2022-09-07T11:38:39.368Z,3.63
2022-09-07T11:41:34.233Z,3.88
2022-09-07T11:44:04.344Z,3.88
2022-09-07T11:46:41.320Z,3.88
2022-09-07T11:49:16.292Z,3.50
2022-09-07T11:51:53.690Z,4.50
2022-09-07T11:54:26.242Z,3.65
2022-09-07T11:57:36.676Z,3.70
2022-09-07T12:00:08.302Z,3.80
2022-09-07T12:03:01.063Z,4.00
2022-09-07T12:06:01.957Z,3.67
2022-09-07T12:08:43.477Z,3.50
2022-09-07T12:11:33.533Z,4.22
2022-09-07T12:14:15.192Z,4.20
2022-09-07T12:17:15.579Z,3.42
2022-09-07T12:19:42.617Z,3.63
2022-09-07T12:22:22.420Z,3.88
2022-09-07T12:24:53.736Z,3.20
2022-09-07T12:27:20.239Z,3.65
2022-09-07T12:29:47.987Z,3.20
2022-09-07T12:32:54.823Z,4.07
2022-09-07T12:35:28.286Z,3.58
2022-09-07T12:37:56.603Z,3.67
2022-09-07T12:40:29.501Z,3.17
2022-09-07T12:43:14.594Z,3.50
2022-09-07T12:45:41.857Z,3.58
2022-09-07T12:48:33.196Z,3.53
2022-09-07T12:51:12.303Z,3.40
2022-09-07T12:53:42.019Z,3.17
2022-09-07T12:56:43.886Z,3.20
2022-09-07T12:59:38.252Z,3.45
2022-09-07T13:02:32.012Z,3.67
2022-09-07T13:05:24.988Z,3.60
2022-09-07T13:08:29.134Z,3.42
2022-09-07T13:10:55.748Z,3.05
2022-09-07T13:16:27.876Z,3.67
2022-09-07T13:18:54.500Z,3.38
2022-09-07T13:21:37.009Z,3.13
2022-09-07T13:27:26.507Z,3.65
2022-09-07T13:30:24.746Z,3.60
2022-09-07T13:35:39.015Z,3.00
2022-09-07T13:38:05.632Z,3.63
2022-09-07T13:40:37.616Z,3.30
2022-09-07T13:43:05.400Z,3.72
2022-09-07T13:45:45.371Z,3.60
2022-09-07T13:48:37.593Z,3.40
2022-09-07T13:51:10.381Z,3.13
2022-09-07T13:54:28.998Z,3.13
2022-09-07T13:57:16.444Z,3.55
2022-09-07T13:59:43.270Z,2.97
2022-09-07T14:02:27.003Z,3.47
2022-09-07T14:04:55.560Z,3.20
2022-09-07T14:07:28.847Z,3.30
2022-09-07T14:10:26.024Z,3.22
2022-09-07T14:13:08.168Z,3.50
2022-09-07T14:15:42.247Z,3.25
2022-09-07T14:18:22.616Z,3.13
2022-09-07T14:20:51.319Z,3.17
2022-09-07T14:23:29.742Z,3.63
2022-09-07T14:26:18.946Z,3.10
2022-09-07T14:28:51.823Z,3.17
2022-09-07T14:31:25.727Z,3.90
2022-09-07T14:33:57.932Z,3.42
2022-09-07T14:36:47.701Z,3.50
2022-09-07T14:39:17.023Z,3.58
2022-09-07T14:41:44.498Z,3.78
2022-09-07T14:44:32.381Z,3.65
2022-09-07T14:47:02.735Z,3.67
2022-09-07T14:49:29.628Z,3.58
2022-09-07T14:51:56.876Z,3.67
2022-09-07T14:54:31.612Z,3.85
2022-09-07T14:57:02.632Z,4.00
2022-09-07T14:59:47.041Z,4.80
2022-09-07T15:02:21.726Z,3.30
2022-09-07T15:05:17.972Z,3.63
2022-09-07T15:07:54.287Z,4.18
2022-09-07T15:10:20.840Z,3.80
2022-09-07T15:12:49.318Z,4.05
2022-09-07T15:15:31.149Z,3.90
2022-09-07T15:18:05.852Z,4.28
2022-09-07T15:20:36.388Z,3.45
2022-09-07T15:23:14.353Z,4.03
2022-09-07T15:25:45.435Z,3.60
2022-09-07T15:34:02.184Z,4.13
2022-09-07T15:36:32.046Z,3.95
2022-09-07T15:39:00.857Z,5.40
2022-09-07T15:41:29.192Z,4.00
2022-09-07T15:43:56.807Z,3.97
2022-09-07T15:46:25.085Z,4.20
2022-09-07T15:48:54.649Z,4.03
2022-09-07T15:54:14.067Z,4.10
2022-09-07T15:56:42.713Z,4.28
2022-09-07T15:59:10.552Z,4.00
2022-09-07T16:01:54.646Z,4.38
2022-09-07T16:04:24.123Z,4.15
2022-09-07T16:06:50.940Z,3.78
2022-09-07T16:09:17.837Z,4.22
2022-09-07T16:11:50.178Z,3.92
2022-09-07T16:14:17.476Z,4.47
2022-09-07T16:19:34.625Z,5.00
2022-09-07T16:22:01.952Z,3.83
2022-09-07T16:24:28.644Z,3.70
2022-09-07T16:26:55.467Z,4.25
2022-09-07T16:29:22.047Z,3.60
2022-09-07T16:34:35.520Z,4.18
2022-09-07T16:37:02.686Z,4.35
2022-09-07T16:39:29.430Z,4.20
2022-09-07T16:41:56.200Z,3.90
2022-09-07T16:44:23.148Z,4.22
2022-09-07T16:46:50.642Z,3.35
2022-09-07T16:49:17.782Z,3.55
2022-09-07T16:51:45.626Z,3.85
2022-09-07T16:54:13.760Z,3.65
2022-09-07T16:56:40.294Z,3.97
2022-09-07T16:59:09.523Z,3.78
2022-09-07T17:01:40.114Z,3.50
2022-09-07T17:04:10.868Z,4.07
2022-09-07T17:06:38.641Z,3.67
2022-09-07T17:09:05.343Z,3.72
2022-09-07T17:11:36.420Z,4.22
2022-09-07T17:14:05.330Z,4.30
2022-09-07T17:16:39.173Z,4.03
2022-09-07T17:21:55.504Z,3.75
2022-09-07T17:24:24.001Z,4.40
2022-09-07T17:26:50.597Z,3.75
2022-09-07T17:29:17.235Z,4.35
2022-09-07T17:34:30.839Z,3.53
2022-09-07T17:36:57.636Z,4.43
2022-09-07T17:39:24.147Z,4.43
2022-09-07T17:41:54.350Z,4.38
2022-09-07T17:44:21.705Z,3.58
2022-09-07T17:46:48.244Z,3.70
2022-09-07T17:49:16.506Z,3.95
2022-09-07T17:51:44.529Z,4.30
2022-09-07T17:54:14.653Z,4.10
2022-09-07T17:56:43.050Z,3.70
2022-09-07T18:01:57.117Z,3.20
2022-09-07T18:04:24.519Z,3.45
2022-09-07T18:06:51.550Z,3.42
2022-09-07T18:09:19.525Z,4.90
2022-09-07T18:11:47.591Z,4.43
2022-09-07T18:14:15.460Z,4.43
2022-09-07T18:16:43.815Z,4.68
2022-09-07T18:19:11.711Z,3.97
2022-09-07T18:21:41.013Z,4.32
2022-09-07T18:24:16.706Z,4.13
2022-09-07T18:26:44.750Z,4.03
2022-09-07T18:29:28.120Z,3.65
2022-09-07T18:31:56.225Z,4.40
2022-09-07T18:34:23.381Z,4.47
2022-09-07T18:36:50.330Z,3.95
2022-09-07T18:39:16.933Z,4.82
2022-09-07T18:41:43.513Z,4.18
2022-09-07T18:46:56.783Z,4.57
2022-09-07T18:49:24.641Z,4.30
2022-09-07T18:54:38.894Z,4.57
2022-09-07T18:57:06.682Z,4.65
2022-09-07T18:59:34.231Z,4.88
2022-09-07T19:02:04.417Z,4.57
2022-09-07T19:07:24.998Z,5.53
2022-09-07T19:09:55.516Z,4.40
2022-09-07T19:12:22.204Z,5.68
2022-09-07T19:14:48.755Z,5.28
2022-09-07T19:17:15.256Z,5.10
2022-09-07T19:19:41.991Z,5.78
2022-09-07T19:22:08.535Z,4.95
2022-09-07T19:24:35.071Z,5.40
2022-09-07T19:27:01.629Z,4.97
2022-09-07T19:29:29.015Z,5.25
2022-09-07T19:32:05.003Z,5.35
2022-09-07T19:34:32.086Z,4.82
2022-09-07T19:36:59.089Z,5.30
2022-09-07T19:39:25.716Z,5.90
2022-09-07T19:41:52.289Z,5.30
2022-09-07T19:44:18.880Z,5.85
2022-09-07T19:46:45.476Z,4.97
2022-09-07T19:49:12.221Z,5.97
2022-09-07T19:51:40.097Z,5.28
2022-09-07T19:54:07.139Z,4.93
2022-09-07T19:56:36.425Z,5.25
2022-09-07T19:59:03.019Z,5.32
2022-09-07T20:01:29.653Z,5.45
2022-09-07T20:04:05.174Z,5.13
2022-09-07T20:06:33.555Z,4.88
2022-09-07T20:09:01.230Z,5.57
2022-09-07T20:11:28.792Z,5.47
2022-09-07T20:13:57.099Z,5.20
2022-09-07T20:16:25.321Z,4.75
2022-09-07T20:18:52.134Z,5.70
2022-09-07T20:21:23.583Z,5.60
2022-09-07T20:23:51.088Z,4.75
2022-09-07T20:26:19.689Z,5.13
2022-09-07T20:28:46.882Z,5.78
2022-09-07T20:31:15.712Z,5.55
2022-09-07T20:33:44.626Z,6.30
2022-09-07T20:36:13.595Z,4.93
2022-09-07T20:38:41.322Z,5.50
2022-09-07T20:41:12.684Z,5.35
2022-09-07T20:43:39.295Z,5.38
2022-09-07T20:46:06.056Z,4.85
2022-09-07T20:48:33.875Z,4.93
2022-09-07T20:51:03.656Z,5.32
2022-09-07T20:53:30.682Z,5.18
2022-09-07T20:56:03.190Z,5.15
2022-09-07T20:58:30.872Z,4.72
2022-09-07T21:00:57.682Z,4.35
2022-09-07T21:03:24.432Z,5.50
2022-09-07T21:05:51.251Z,5.43
2022-09-07T21:08:18.373Z,5.72
2022-09-07T21:10:46.618Z,5.85
2022-09-07T21:13:14.385Z,6.97
2022-09-07T21:15:42.714Z,5.53
2022-09-07T21:18:15.128Z,6.10
2022-09-07T21:20:52.816Z,5.72
2022-09-07T21:23:31.938Z,5.68
2022-09-07T21:25:58.609Z,5.65
2022-09-07T21:28:26.179Z,5.18
2022-09-07T21:31:01.978Z,5.50
2022-09-07T21:33:29.837Z,5.22
2022-09-07T21:36:02.404Z,5.07
2022-09-07T21:38:29.003Z,5.20
2022-09-07T21:40:55.754Z,5.32
2022-09-07T21:43:22.416Z,4.85
2022-09-07T21:45:49.476Z,6.30
2022-09-07T21:48:15.993Z,11.70
2022-09-07T21:50:42.604Z,8.65
2022-09-07T21:53:09.119Z,5.97
2022-09-07T21:55:35.819Z,5.97
2022-09-07T21:58:02.315Z,5.90
2022-09-07T22:00:29.040Z,5.57
2022-09-07T22:02:55.558Z,6.03
2022-09-07T22:05:22.093Z,7.15
2022-09-07T22:07:48.626Z,6.10
2022-09-07T22:10:15.200Z,7.45
2022-09-07T22:12:41.808Z,6.97
2022-09-07T22:15:08.740Z,5.65
2022-09-07T22:17:35.254Z,6.28
2022-09-07T22:20:02.308Z,5.43
2022-09-07T22:22:28.840Z,5.55
2022-09-07T22:24:55.362Z,5.07
2022-09-07T22:27:21.911Z,4.88
2022-09-07T22:29:48.487Z,5.60
2022-09-07T22:32:15.028Z,5.80
2022-09-07T22:34:41.575Z,5.25
2022-09-07T22:37:08.114Z,5.82
2022-09-07T22:39:34.734Z,4.93
2022-09-07T22:42:01.497Z,5.38
2022-09-07T22:44:28.772Z,5.47
2022-09-07T22:46:55.361Z,5.60
2022-09-07T22:49:22.084Z,5.90
2022-09-07T22:51:48.616Z,6.38
2022-09-07T22:54:15.155Z,5.90
2022-09-07T22:56:42.329Z,5.43
2022-09-07T22:59:09.556Z,5.55
2022-09-07T23:01:37.095Z,6.88
2022-09-07T23:04:04.984Z,6.78
2022-09-07T23:06:37.503Z,5.15
2022-09-07T23:09:07.756Z,5.38
2022-09-07T23:11:34.503Z,5.65
2022-09-07T23:14:04.875Z,5.60
2022-09-07T23:16:31.746Z,5.85
2022-09-07T23:18:59.232Z,5.50
2022-09-07T23:21:27.264Z,4.95
2022-09-07T23:23:56.741Z,6.55
2022-09-07T23:26:24.805Z,6.00
2022-09-07T23:28:52.988Z,5.75
2022-09-07T23:31:20.767Z,5.38
2022-09-07T23:33:47.695Z,5.80
2022-09-07T23:36:14.396Z,5.45
2022-09-07T23:38:40.967Z,6.07
2022-09-07T23:41:07.620Z,6.55
2022-09-07T23:43:34.211Z,6.45
2022-09-07T23:46:00.976Z,7.07
2022-09-07T23:48:28.164Z,6.25
2022-09-07T23:50:54.823Z,6.10
2022-09-07T23:53:22.276Z,5.53
2022-09-07T23:55:52.044Z,5.65
2022-09-07T23:58:20.423Z,6.78
